Weather observations for the past three days for
Lake City Municipal Airport
Metric (Imperial)
Date Time (edt) Wind (kph) Vis. (km) Weather Sky Cond. Temperature (ºC) Relative Humidity Wind Chill (°C) Heat Index (°C) Pressure Precipitation (cm)
Air Dwpt 6 hour altimeter (cm) sea level (mb) 1 hr 3 hr 6 hr
Max. Min.
08 16:15 N 9 16.09 Partly Cloudy SCT033 SCT060 SCT120 28 20 62% 30 75.97 0.0
08 15:55 N 13 16.09 Partly Cloudy SCT029 SCT070 28 20 62% 30 75.97 0.0
08 15:35 NE 11 16.09 Mostly Cloudy SCT029 BKN080 28 20 62% 30 76.02 0.0
08 15:15 E 7 16.09 Partly Cloudy SCT029 SCT043 SCT060 27 20 66% 29 76.05 0.0
08 14:55 N 15 16.09 Mostly Cloudy SCT031 SCT039 BKN045 27 20 66% 29 76.05 0.0
08 14:35 N 13 16.09 Overcast SCT029 BKN039 OVC065 27 20 66% 29 76.07 0.0
08 14:15 N 9 16.09 Overcast OVC029 26 20 70% 27 76.1 0.0
08 13:55 N 9 16.09 Overcast OVC029 27 20 66% 29 76.1 0.0
08 13:35 Calm 16.09 Mostly Cloudy SCT029 BKN039 28 20 62% 30 76.1 0.0
08 13:15 NE 6 16.09 Partly Cloudy SCT024 28 21 66% 30 76.12 0.0
08 12:55 E 6 16.09 Partly Cloudy SCT024 27 20 66% 29 76.12 0.0
08 12:35 E 7 16.09 Fair CLR 26 20 70% 27 76.15 0.0
08 12:15 NE 6 16.09 Partly Cloudy SCT026 SCT043 25 20 74% 26 76.17 0.0
08 11:55 NE 11 16.09 Mostly Cloudy BKN026 BKN037 BKN043 24 19 74% 25 76.2 0.0
08 11:35 N 11 16.09 Overcast BKN027 BKN034 OVC050 23 19 78% 76.23 0.0
08 11:15 N 9 16.09 Overcast OVC025 23 19 78% 76.23 0.0
08 10:55 N 11 16.09 Overcast BKN022 OVC032 23 19 78% 76.23 0.0
08 10:35 N 9 16.09 Overcast SCT011 BKN034 OVC041 23 20 83% 76.23 0.0
08 10:15 N 7 16.09 Overcast SCT011 SCT020 OVC041 22 20 88% 76.23 0.0
08 09:55 N 11 16.09 Overcast SCT009 BKN015 OVC019 22 21 94% 76.2 0.0
08 09:15 N 9 16.09 Overcast SCT009 OVC019 22 21 94% 76.2 0.0
08 08:35 N 15 16.09 Overcast SCT009 OVC023 22 21 94% 76.17 0.0
08 08:15 NE 6 16.09 Overcast OVC021 22 22 100% 76.17 0.0
08 07:55 NE 6 16.09 Overcast BKN021 BKN029 OVC034 22 22 100% 76.12 0.0
08 07:35 N 11 16.09 Overcast SCT009 BKN015 OVC033 22 21 94% 76.12 0.0
08 07:15 W 6 11.27 Overcast SCT009 SCT014 OVC033 23 23 100% 76.1 0.0
08 06:55 W 6 16.09 Overcast SCT009 OVC014 23 23 100% 76.07 0.0
08 06:35 SW 6 16.09 Overcast SCT007 BKN014 OVC045 23 23 100% 76.05 0.0
08 06:15 W 6 16.09 Overcast SCT009 SCT018 OVC045 23 22 94% 76.02 0.0
08 05:55 W 6 16.09 Overcast SCT009 SCT014 OVC018 23 23 100% 76 0.0
08 05:35 W 6 16.09 Mostly Cloudy SCT009 SCT013 BKN018 23 23 100% 76 0.0
08 05:15 W 7 16.09 Mostly Cloudy SCT009 BKN040 23 22 94% 76 0.0
08 04:55 W 7 16.09 Overcast BKN009 OVC040 23 22 94% 76 0.0
08 04:35 W 7 16.09 Overcast BKN009 OVC016 23 22 94% 76 0.0
08 04:15 W 6 16.09 Overcast SCT009 BKN016 OVC041 23 22 94% 76 0.0
08 03:35 W 7 16.09 Overcast SCT011 BKN014 OVC026 23 22 94% 76 0.0
08 03:15 W 9 16.09 Mostly Cloudy BKN010 BKN014 BKN020 23 22 94% 76.02 0.0
08 02:55 SW 7 16.09 Mostly Cloudy BKN010 BKN016 BKN024 23 22 94% 76.02 0.0
08 02:35 W 9 16.09 Overcast BKN010 OVC034 23 22 94% 76.05 0.0
08 02:15 W 11 16.09 Overcast BKN010 OVC040 23 22 94% 76.07 0.0
08 01:55 W 13 16.09 Overcast BKN010 OVC040 23 22 94% 76.07 0.0
08 01:35 W 13 16.09 Overcast SCT013 BKN026 OVC039 23 22 94% 76.1 0.0
08 01:15 W 13 16.09 Overcast SCT013 BKN025 OVC038 23 22 94% 76.07 0.0
08 00:55 W 13 16.09 Overcast OVC036 24 22 89% 24 76.1 0.0
08 00:35 SW 11 16.09 Overcast OVC033 24 22 89% 24 76.07 0.0
08 00:15 SW 15 16.09 Overcast SCT015 OVC029 24 22 89% 24 76.07 0.0
07 23:55 W 17 16.09 Overcast OVC027 24 22 89% 24 76.07 0.0
07 23:35 W 11 16.09 Overcast OVC027 24 22 89% 24 76.07 0.0
07 22:55 W 15 16.09 Overcast SCT016 OVC023 24 21 83% 24 76.07 0.0
07 22:35 W 11 16.09 Overcast OVC019 24 21 83% 24 76.07 0.0
07 22:15 W 13 16.09 Overcast OVC019 25 21 79% 26 76.05 0.0
07 21:55 W 17 16.09 Mostly Cloudy BKN019 25 21 79% 26 76.05 0.0
07 21:35 W 13 16.09 Partly Cloudy SCT019 25 21 79% 26 76.05 0.0
07 21:15 SW 15 16.09 Partly Cloudy SCT021 25 20 74% 26 76.05 0.0
07 20:55 W 19 16.09 Fair CLR 25 20 74% 26 76.05 0.0
07 20:35 W 22 16.09 Fair CLR 26 20 70% 27 76.02 0.0
07 20:15 W 15 16.09 Fair CLR 26 20 70% 27 75.97 0.0
07 19:55 SW 13 4.83 Mostly Cloudy with Haze SCT023 BKN029 26 20 70% 27 75.97 0.0
07 19:35 SW 17 4.83 Overcast with Haze SCT019 BKN026 OVC031 27 20 66% 29 75.97 0.0
07 19:15 W 20 G 30 3.22 Overcast with Haze OVC028 27 19 62% 28 76 0.0
07 18:55 W 26 G 33 4.83 Overcast with Haze SCT021 BKN029 OVC033 28 18 55% 29 75.97 0.0
07 18:35 W 22 G 28 4.02 Overcast with Haze BKN026 OVC034 28 18 55% 29 75.97 0.0
07 18:15 SW 20 G 30 6.44 Mostly Cloudy with Haze BKN033 BKN038 29 17 48% 29 75.95 0.0
07 17:55 SW 24 G 35 11.27 Partly Cloudy SCT028 SCT034 30 18 49% 31 75.92 0.0
07 17:35 SW 26 G 33 16.09 Fair CLR 30 18 49% 31 75.95 0.0
07 17:15 SW 22 G 31 16.09 Fair CLR 31 17 43% 31 75.9 0.0
07 16:55 SW 20 G 35 16.09 Partly Cloudy SCT100 30 17 46% 30 75.92 0.0
07 16:35 SW 22 G 31 16.09 Mostly Cloudy BKN100 30 17 46% 30 75.97 0.0
07 16:15 SW 15 G 33 16.09 Partly Cloudy SCT110 30 18 49% 31 76.02 0.0
07 15:35 W 17 16.09 Mostly Cloudy SCT100 BKN120 28 17 51% 29 76.1 0.0
07 15:15 W 20 G 26 16.09 Overcast SCT047 BKN100 OVC120 28 17 51% 29 76.1 0.0
07 14:55 SW 17 16.09 Mostly Cloudy SCT047 BKN100 28 17 51% 29 76.1 0.0
07 14:35 W 17 G 31 16.09 Fair CLR 29 17 48% 29 76.17 0.0
07 14:15 W 15 G 28 16.09 Partly Cloudy SCT036 SCT042 29 17 48% 29 76.2 0.0
07 13:55 W 15 16.09 Partly Cloudy SCT036 SCT049 27 18 58% 28 76.23 0.0
07 13:15 NW 9 11.27 Partly Cloudy SCT032 SCT039 26 18 61% 27 76.25 0.0
07 12:55 W 17 G 26 8.05 Overcast with Haze SCT024 BKN029 OVC034 26 18 61% 27 76.28 0.0
07 12:35 NW 17 6.44 Overcast with Haze BKN024 OVC029 26 18 61% 27 76.25 0.0
07 11:55 NW 19 G 30 6.44 Mostly Cloudy with Haze SCT029 BKN035 27 18 58% 28 76.25 0.0
07 11:35 W 20 G 28 16.09 Partly Cloudy SCT031 27 18 58% 28 76.28 0.0
07 11:15 W 19 G 26 16.09 Partly Cloudy SCT027 26 18 61% 27 76.25 0.0
07 10:55 W 20 G 28 16.09 Mostly Cloudy BKN023 BKN030 26 18 61% 27 76.25 0.0
07 10:35 W 19 G 26 16.09 Partly Cloudy SCT021 25 18 65% 26 76.23 0.0
07 10:15 W 20 16.09 Partly Cloudy SCT019 25 18 65% 26 76.2 0.0
07 09:55 W 19 G 26 16.09 Fair CLR 25 19 69% 26 76.2 0.0
07 09:35 SW 17 16.09 Fair CLR 23 18 74% 76.17 0.0
07 09:15 SW 13 16.09 Fair CLR 23 18 74% 76.2 0.0
07 08:55 SW 11 16.09 Fair CLR 22 19 83% 76.17 0.0
07 08:35 W 6 16.09 Fair CLR 21 20 94% 76.17 0.0
07 08:15 SW 7 16.09 Fair CLR 20 20 100% 76.15 0.0
07 07:55 Calm 16.09 Fair CLR 19 19 100% 76.12 0.0
07 07:35 Calm 11.27 Partly Cloudy SCT002 19 19 100% 76.12 0.0
07 06:55 SW 7 2.01 Fog/Mist OVC002 20 20 100% 76.12 0.0
07 06:35 SW 7 8.05 Fog/Mist OVC002 20 20 100% 76.12 0.0
07 06:15 SW 7 6.44 Fog/Mist OVC002 20 20 100% 76.1 0.0
07 05:55 SW 6 8.05 Fog/Mist OVC002 20 20 100% 76.1 0.0
07 05:35 SW 6 8.05 Fog/Mist OVC002 20 20 100% 76.1 0.0
07 05:15 SW 6 8.05 Fog/Mist OVC002 19 19 100% 76.1 0.0
07 04:55 SW 9 11.27 Mostly Cloudy BKN004 19 19 100% 76.05 0.0
07 04:35 SW 6 11.27 Partly Cloudy SCT004 19 19 100% 76.05 0.0
07 04:15 SW 11 16.09 Partly Cloudy SCT004 19 19 100% 76.05 0.0
07 03:55 SW 7 11.27 Overcast OVC004 20 20 100% 76.05 0.0
07 03:35 S 7 16.09 Overcast OVC004 19 19 100% 76.07 0.0
07 03:15 S 11 16.09 Overcast OVC004 19 19 100% 76.07 0.0
07 02:55 Calm 16.09 Mostly Cloudy BKN004 19 19 100% 76.1 0.0
07 02:35 Calm 16.09 Fair CLR 19 19 100% 76.1 0.0
07 02:15 SW 6 16.09 Fair CLR 19 18 94% 76.12 0.0
07 01:55 Calm 16.09 Fair CLR 18 18 100% 76.15 0.0
07 01:35 Calm 16.09 Fair CLR 20 18 88% 76.15 0.0
07 01:15 Calm 16.09 Fair CLR 20 18 88% 76.15 0.0
07 00:55 SW 7 16.09 Fair CLR 20 18 88% 76.17 0.0
07 00:35 SW 7 16.09 Fair CLR 21 17 78% 76.17 0.0
07 00:15 SW 9 16.09 Fair CLR 21 17 78% 76.17 0.0
06 23:55 SW 9 16.09 Fair CLR 21 17 78% 76.2 0.0
06 23:35 SW 9 16.09 Fair CLR 21 17 78% 76.2 0.0
06 23:15 SW 9 16.09 Fair CLR 21 17 78% 76.17 0.0
06 22:55 SW 7 16.09 Fair CLR 22 17 73% 76.17 0.0
06 22:35 SW 9 16.09 Fair CLR 22 17 73% 76.17 0.0
06 22:15 SW 9 16.09 Fair CLR 23 17 69% 76.17 0.0
06 21:55 SW 7 16.09 Fair CLR 23 17 69% 76.2 0.0
06 21:35 SW 7 16.09 Fair CLR 23 17 69% 76.17 0.0
06 21:15 SW 9 16.09 Fair CLR 23 17 69% 76.17 0.0
06 20:55 W 13 16.09 Fair CLR 25 17 61% 26 76.2 0.0
06 20:35 W 17 16.09 Fair CLR 25 17 61% 26 76.2 0.0
06 20:15 W 15 16.09 Fair CLR 26 16 54% 27 76.17 0.0
06 19:55 W 19 11.27 Fair CLR 26 16 54% 27 76.15 0.0
06 19:35 W 17 11.27 Fair CLR 27 16 51% 27 76.12 0.0
06 19:15 W 17 G 28 11.27 Fair CLR 28 16 48% 28 76.12 0.0
06 18:55 W 20 11.27 Fair CLR 28 16 48% 28 76.12 0.0
06 18:35 W 22 11.27 Fair CLR 29 16 45% 29 76.15 0.0
06 18:20 W 26 11.27 Fair CLR 30 16 43% 30 76.15 0.0
06 17:55 W 28 G 35 16.09 Fair CLR 30 16 43% 30 76.12 0.0
06 17:35 W 20 G 28 11.27 Partly Cloudy SCT041 SCT060 31 16 40% 31 76.12 0.0
06 17:15 W 20 G 30 11.27 Partly Cloudy SCT060 31 16 40% 31 76.12 0.0
06 16:55 W 24 11.27 Partly Cloudy SCT060 32 16 38% 32 76.12 0.0
06 16:35 SW 13 16.09 Partly Cloudy SCT060 32 16 38% 32 76.12 0.0
06 16:15 W 11 G 26 16.09 Partly Cloudy SCT060 32 16 38% 32 76.15 0.0
06 15:55 W 13 G 19 16.09 Fair CLR 32 17 41% 32 76.17 0.0
06 15:35 SW 11 16.09 Partly Cloudy SCT055 31 17 43% 31 76.17 0.0
06 15:15 W 13 16.09 Partly Cloudy SCT055 31 17 43% 31 76.2 0.0
06 14:55 W 11 16.09 Partly Cloudy SCT055 30 17 46% 30 76.23 0.0
06 14:35 W 13 G 30 16.09 Fair CLR 30 15 40% 30 76.23 0.0
06 14:15 W 9 16.09 Partly Cloudy SCT049 30 16 43% 30 76.25 0.0
06 13:55 W 20 16.09 Partly Cloudy SCT049 30 16 43% 30 76.28 0.0
06 13:35 SW 9 16.09 Partly Cloudy SCT049 29 17 48% 29 76.28 0.0
06 13:15 SW 9 G 28 16.09 Fair CLR 29 17 48% 29 76.3 0.0
06 12:55 W 13 G 28 16.09 Fair CLR 28 17 51% 29 76.33 0.0
06 12:35 S 15 16.09 Fair CLR 28 17 51% 29 76.33 0.0
06 12:15 SW 15 16.09 Fair CLR 28 18 55% 29 76.33 0.0
06 11:55 SW 15 16.09 Fair CLR 27 18 58% 28 76.33 0.0
06 11:35 SW 15 G 30 16.09 Fair CLR 27 18 58% 28 76.33 0.0
06 11:15 S 19 G 28 16.09 Fair CLR 26 17 58% 27 76.33 0.0
06 10:55 S 17 G 31 16.09 Fair CLR 26 17 58% 27 76.33 0.0
06 10:35 SW 17 G 30 16.09 Fair CLR 25 17 61% 26 76.33 0.0
06 10:15 S 7 16.09 Fair CLR 25 17 61% 26 76.33 0.0
06 09:55 S 13 16.09 Fair CLR 24 17 65% 25 76.3 0.0
06 09:35 S 17 16.09 Fair CLR 23 17 69% 76.3 0.0
06 09:15 S 13 16.09 Fair CLR 22 16 69% 76.3 0.0
06 08:55 S 13 16.09 Fair CLR 21 16 73% 76.3 0.0
06 08:35 S 11 16.09 Fair CLR 20 15 73% 76.28 0.0
06 08:15 S 7 16.09 Fair CLR 18 14 78% 76.28 0.0
06 07:55 SE 6 16.09 Fair CLR 17 13 77% 76.25 0.0
06 07:35 Calm 16.09 Fair CLR 16 13 83% 76.25 0.0
06 07:15 SE 6 16.09 Fair CLR 15 12 82% 76.23 0.0
06 06:55 SE 6 16.09 Fair CLR 15 12 82% 76.23 0.0
06 06:35 SE 7 16.09 Fair CLR 15 12 82% 76.2 0.0
06 06:15 SE 6 16.09 Fair CLR 13 12 94% 76.2 0.0
06 05:55 Calm 16.09 Fair CLR 13 12 94% 76.2 0.0
06 05:35 Calm 16.09 Fair CLR 14 12 88% 76.2 0.0
06 05:15 Calm 16.09 Fair CLR 14 12 88% 76.2 0.0
06 04:55 Calm 16.09 Fair CLR 14 12 88% 76.2 0.0
06 04:35 Calm 16.09 Fair CLR 14 11 82% 76.2 0.0
06 04:15 Calm 16.09 Fair CLR 15 12 82% 76.2 0.0
06 03:55 Calm 16.09 Fair CLR 16 12 77% 76.2 0.0
06 03:35 Calm 16.09 Fair CLR 16 11 72% 76.2 0.0
06 03:15 SE 6 16.09 Fair CLR 16 11 72% 76.17 0.0
06 02:55 SE 6 16.09 Fair CLR 16 12 77% 76.2 0.0
06 02:35 SE 7 16.09 Fair CLR 16 11 72% 76.2 0.0
06 02:15 SE 7 16.09 Fair CLR 17 11 68% 76.23 0.0
06 01:55 SE 7 16.09 Fair CLR 17 11 68% 76.25 0.0
06 01:35 E 6 16.09 Fair CLR 17 11 68% 76.25 0.0
06 01:15 SE 9 16.09 Fair CLR 17 11 68% 76.25 0.0
06 00:55 SE 7 16.09 Fair CLR 17 11 68% 76.28 0.0
06 00:35 SE 7 16.09 Fair CLR 17 11 68% 76.3 0.0
06 00:15 SE 7 16.09 Fair CLR 17 11 68% 76.28 0.0
05 23:55 Calm 16.09 Fair CLR 18 11 64% 76.3 0.0
05 23:35 SE 6 16.09 Fair CLR 18 11 64% 76.3 0.0
05 23:15 SE 6 16.09 Fair CLR 19 11 60% 76.3 0.0
05 22:55 SE 7 16.09 Fair CLR 19 11 60% 76.28 0.0
05 22:35 SE 7 16.09 Fair CLR 20 11 56% 76.25 0.0
05 22:15 SE 11 16.09 Fair CLR 21 12 57% 76.25 0.0
05 21:55 SE 15 16.09 Fair CLR 22 12 53% 76.23 0.0
05 21:35 SE 6 16.09 Fair CLR 22 13 57% 76.2 0.0
05 21:15 E 9 16.09 Fair CLR 22 14 61% 76.17 0.0
05 20:55 E 7 16.09 Fair CLR 23 14 57% 76.15 0.0
05 20:35 W 11 16.09 Fair CLR 24 14 54% 25 76.15 0.0
05 20:15 W 15 16.09 Fair CLR 25 14 51% 26 76.15 0.0
05 19:55 W 13 16.09 Fair CLR 26 14 48% 26 76.12 0.0
05 19:35 W 17 16.09 Fair CLR 26 14 48% 26 76.1 0.0
05 19:15 W 9 16.09 Fair CLR 28 12 37% 27 76.1 0.0
05 18:55 W 13 16.09 Partly Cloudy SCT080 28 11 35% 27 76.1 0.0
05 18:35 SW 9 16.09 Partly Cloudy SCT080 28 11 35% 27 76.07 0.0
05 18:15 SW 11 16.09 Fair CLR 28 11 35% 27 76.07 0.0
05 17:55 W 13 16.09 Fair CLR 29 11 33% 28 76.07 0.0
05 17:35 S 11 16.09 Fair CLR 29 11 33% 28 76.07 0.0
05 17:15 W 9 16.09 Fair CLR 29 11 33% 28 76.07 0.0
Date Time (edt) Wind (kph) Vis. (km) Weather Sky Cond. Air Dwpt Max. Min. Relative Humidity Wind Chill (°C) Heat Index (°C) altimeter (cm) sea level (mb) 1 hr 3 hr 6 hr
6 hour
Temperature (ºC) Pressure Precipitation (cm)